createdAt,value
2022-11-20T19:37:47.104Z,98711.05
2022-11-20T19:39:55.801Z,98712.45
2022-11-20T19:42:03.215Z,98711.81
2022-11-20T19:44:11.411Z,98707.98
2022-11-20T19:46:20.138Z,98707.56
2022-11-20T19:48:32.998Z,98700.93
2022-11-20T19:50:41.431Z,98702.44
2022-11-20T19:52:55.706Z,98701.02
2022-11-20T19:55:04.987Z,98702.06
2022-11-20T19:57:11.013Z,98699.33
2022-11-20T19:59:21.111Z,98699.21
2022-11-20T20:01:31.714Z,98696.63
2022-11-20T20:03:39.181Z,98697.77
2022-11-20T20:05:45.481Z,98695.54
2022-11-20T20:07:52.632Z,98692.60
2022-11-20T20:09:59.333Z,98697.33
2022-11-20T20:12:06.728Z,98699.57
2022-11-20T20:14:14.755Z,98700.63
2022-11-20T20:16:22.734Z,98701.39
2022-11-20T20:18:31.535Z,98698.61
2022-11-20T20:20:41.693Z,98698.64
2022-11-20T20:22:51.444Z,98697.66
2022-11-20T20:24:57.569Z,98701.54
2022-11-20T20:27:04.356Z,98707.85
2022-11-20T20:29:11.055Z,98714.62
2022-11-20T20:31:19.404Z,98715.72
2022-11-20T20:33:26.825Z,98712.91
2022-11-20T20:35:34.858Z,98717.39
2022-11-20T20:37:40.951Z,98715.21
2022-11-20T20:39:46.441Z,98711.98
2022-11-20T20:41:58.084Z,98710.45
2022-11-20T20:44:07.839Z,98708.80
2022-11-20T20:46:14.597Z,98712.05
2022-11-20T20:48:23.568Z,98715.14
2022-11-20T20:50:36.473Z,98707.65
2022-11-20T20:52:43.046Z,98709.27
2022-11-20T20:54:49.371Z,98711.84
2022-11-20T20:56:56.584Z,98709.85
2022-11-20T20:59:04.676Z,98713.45
2022-11-20T21:01:15.852Z,98720.92
2022-11-20T21:03:24.161Z,98716.45
2022-11-20T21:05:32.447Z,98723.71
2022-11-20T21:07:38.238Z,98715.44
2022-11-20T21:09:57.076Z,98711.95
2022-11-20T21:12:02.119Z,98709.38
2022-11-20T21:14:07.273Z,98703.83
2022-11-20T21:16:13.975Z,98700.15
2022-11-20T21:18:20.927Z,98698.17
2022-11-20T21:20:25.863Z,98691.86
2022-11-20T21:22:36.450Z,98686.89
2022-11-20T21:24:41.536Z,98688.50
2022-11-20T21:26:47.468Z,98683.25
2022-11-20T21:28:52.843Z,98681.71
2022-11-20T21:31:06.941Z,98683.17
2022-11-20T21:33:15.544Z,98686.38
2022-11-20T21:35:21.106Z,98679.62
2022-11-20T21:37:28.895Z,98674.47
2022-11-20T21:39:33.549Z,98679.14
2022-11-20T21:41:38.805Z,98678.98
2022-11-20T21:43:43.685Z,98682.30
2022-11-20T21:45:48.883Z,98687.64
2022-11-20T21:47:56.903Z,98687.86
2022-11-20T21:50:01.966Z,98692.66
2022-11-20T21:52:06.721Z,98692.02
2022-11-20T21:54:12.517Z,98694.58
2022-11-20T21:56:20.742Z,98688.89
2022-11-20T21:58:25.976Z,98688.02
2022-11-20T22:00:30.743Z,98685.31
2022-11-20T22:02:35.436Z,98682.95
2022-11-20T22:04:40.093Z,98681.77
2022-11-20T22:06:44.741Z,98684.08
2022-11-20T22:08:50.113Z,98686.95
2022-11-20T22:10:59.855Z,98687.41
2022-11-20T22:13:07.375Z,98689.56
2022-11-20T22:15:12.913Z,98689.71
2022-11-20T22:17:17.611Z,98691.05
2022-11-20T22:19:23.251Z,98692.98
2022-11-20T22:21:29.711Z,98694.19
2022-11-20T22:23:35.040Z,98690.86
2022-11-20T22:25:39.728Z,98696.02
2022-11-20T22:27:45.756Z,98701.16
2022-11-20T22:29:50.514Z,98702.27
2022-11-20T22:31:55.149Z,98701.87
2022-11-20T22:34:01.651Z,98697.98
2022-11-20T22:36:08.862Z,98696.88
2022-11-20T22:38:13.668Z,98693.71
2022-11-20T22:40:18.393Z,98695.61
2022-11-20T22:42:23.112Z,98695.43
2022-11-20T22:44:27.912Z,98695.83
2022-11-20T22:46:34.061Z,98695.54
2022-11-20T22:48:40.664Z,98692.21
2022-11-20T22:50:45.387Z,98694.78
2022-11-20T22:52:50.131Z,98697.11
2022-11-20T22:54:54.775Z,98692.29
2022-11-20T22:56:59.393Z,98694.75
2022-11-20T22:59:04.582Z,98691.67
2022-11-20T23:01:11.475Z,98687.98
2022-11-20T23:03:16.135Z,98687.65
2022-11-20T23:05:20.725Z,98687.73
2022-11-20T23:07:25.445Z,98689.90
2022-11-20T23:09:30.178Z,98686.08
2022-11-20T23:11:35.655Z,98686.56
2022-11-20T23:13:41.447Z,98682.36
2022-11-20T23:15:46.075Z,98675.29
2022-11-20T23:17:50.729Z,98671.53
2022-11-20T23:19:55.361Z,98670.16
2022-11-20T23:22:00.036Z,98664.58
2022-11-20T23:24:05.825Z,98662.06
2022-11-20T23:26:11.999Z,98663.48
2022-11-20T23:28:16.627Z,98666.02
2022-11-20T23:30:21.320Z,98662.83
2022-11-20T23:32:26.039Z,98664.64
2022-11-20T23:34:30.846Z,98663.64
2022-11-20T23:36:35.449Z,98661.45
2022-11-20T23:38:40.562Z,98659.65
2022-11-20T23:40:48.587Z,98660.62
2022-11-20T23:42:53.245Z,98662.42
2022-11-20T23:44:57.897Z,98662.41
2022-11-20T23:47:02.474Z,98661.09
2022-11-20T23:49:07.258Z,98662.21
2022-11-20T23:51:12.562Z,98663.27
2022-11-20T23:53:17.915Z,98662.34
2022-11-20T23:55:22.557Z,98666.95
2022-11-20T23:57:27.157Z,98664.18
2022-11-20T23:59:31.718Z,98662.59
